sensor_id;sensor_type;location;lat;lon;timestamp;temperature;humidity
21627;DHT22;10975;47.872;12.972;2023-11-22T00:00:13;7.80;99.90
21627;DHT22;10975;47.872;12.972;2023-11-22T00:02:40;7.80;99.90
21627;DHT22;10975;47.872;12.972;2023-11-22T00:05:07;7.70;99.90
21627;DHT22;10975;47.872;12.972;2023-11-22T00:07:34;7.70;99.90
21627;DHT22;10975;47.872;12.972;2023-11-22T00:10:00;7.70;99.90
21627;DHT22;10975;47.872;12.972;2023-11-22T00:12:31;7.70;99.90
21627;DHT22;10975;47.872;12.972;2023-11-22T00:15:04;7.70;99.90
21627;DHT22;10975;47.872;12.972;2023-11-22T00:17:32;7.70;99.90
21627;DHT22;10975;47.872;12.972;2023-11-22T00:19:59;7.70;99.90
21627;DHT22;10975;47.872;12.972;2023-11-22T00:22:32;7.70;99.90
21627;DHT22;10975;47.872;12.972;2023-11-22T00:25:00;7.70;99.90
21627;DHT22;10975;47.872;12.972;2023-11-22T00:27:28;7.70;99.90
21627;DHT22;10975;47.872;12.972;2023-11-22T00:29:56;7.70;99.90
21627;DHT22;10975;47.872;12.972;2023-11-22T00:32:24;7.70;99.90
21627;DHT22;10975;47.872;12.972;2023-11-22T00:34:51;7.70;99.90
21627;DHT22;10975;47.872;12.972;2023-11-22T00:37:18;7.70;99.90
21627;DHT22;10975;47.872;12.972;2023-11-22T00:39:45;7.60;99.90
21627;DHT22;10975;47.872;12.972;2023-11-22T00:42:11;7.70;99.90
21627;DHT22;10975;47.872;12.972;2023-11-22T00:44:38;7.70;99.90
21627;DHT22;10975;47.872;12.972;2023-11-22T00:47:05;7.70;99.90
21627;DHT22;10975;47.872;12.972;2023-11-22T00:49:33;7.70;99.90
21627;DHT22;10975;47.872;12.972;2023-11-22T00:51:59;7.70;99.90
21627;DHT22;10975;47.872;12.972;2023-11-22T00:54:28;7.70;99.90
21627;DHT22;10975;47.872;12.972;2023-11-22T00:56:56;7.80;99.90
21627;DHT22;10975;47.872;12.972;2023-11-22T00:59:22;7.70;99.90
21627;DHT22;10975;47.872;12.972;2023-11-22T01:01:49;7.80;99.90
21627;DHT22;10975;47.872;12.972;2023-11-22T01:04:16;7.70;99.90
21627;DHT22;10975;47.872;12.972;2023-11-22T01:06:43;7.70;99.90
21627;DHT22;10975;47.872;12.972;2023-11-22T01:09:09;7.80;99.90
21627;DHT22;10975;47.872;12.972;2023-11-22T01:11:39;7.70;99.90
21627;DHT22;10975;47.872;12.972;2023-11-22T01:14:06;7.80;99.90
21627;DHT22;10975;47.872;12.972;2023-11-22T01:16:32;7.80;99.90
21627;DHT22;10975;47.872;12.972;2023-11-22T01:18:59;7.70;99.90
21627;DHT22;10975;47.872;12.972;2023-11-22T01:21:27;7.70;99.90
21627;DHT22;10975;47.872;12.972;2023-11-22T01:23:54;7.70;99.90
21627;DHT22;10975;47.872;12.972;2023-11-22T01:26:21;7.70;99.90
21627;DHT22;10975;47.872;12.972;2023-11-22T01:28:48;7.80;99.90
21627;DHT22;10975;47.872;12.972;2023-11-22T01:31:15;7.70;99.90
21627;DHT22;10975;47.872;12.972;2023-11-22T01:33:42;7.70;99.90
21627;DHT22;10975;47.872;12.972;2023-11-22T01:36:09;7.60;99.90
21627;DHT22;10975;47.872;12.972;2023-11-22T01:38:35;7.60;99.90
21627;DHT22;10975;47.872;12.972;2023-11-22T01:41:02;7.60;99.90
21627;DHT22;10975;47.872;12.972;2023-11-22T01:43:29;7.60;99.90
21627;DHT22;10975;47.872;12.972;2023-11-22T01:45:56;7.60;99.90
21627;DHT22;10975;47.872;12.972;2023-11-22T01:48:22;7.60;99.90
21627;DHT22;10975;47.872;12.972;2023-11-22T01:50:49;7.60;99.90
21627;DHT22;10975;47.872;12.972;2023-11-22T01:53:16;7.60;99.90
21627;DHT22;10975;47.872;12.972;2023-11-22T01:55:43;7.60;99.90
21627;DHT22;10975;47.872;12.972;2023-11-22T01:58:11;7.60;99.90
21627;DHT22;10975;47.872;12.972;2023-11-22T02:00:50;7.60;99.90
21627;DHT22;10975;47.872;12.972;2023-11-22T02:03:18;7.60;99.90
21627;DHT22;10975;47.872;12.972;2023-11-22T02:05:45;7.60;99.90
21627;DHT22;10975;47.872;12.972;2023-11-22T02:08:12;7.50;99.90
21627;DHT22;10975;47.872;12.972;2023-11-22T02:10:39;7.50;99.90
21627;DHT22;10975;47.872;12.972;2023-11-22T02:13:07;7.60;99.90
21627;DHT22;10975;47.872;12.972;2023-11-22T02:15:34;7.60;99.90
21627;DHT22;10975;47.872;12.972;2023-11-22T02:18:02;7.60;99.90
21627;DHT22;10975;47.872;12.972;2023-11-22T02:20:38;7.60;99.90
21627;DHT22;10975;47.872;12.972;2023-11-22T02:23:09;7.60;99.90
21627;DHT22;10975;47.872;12.972;2023-11-22T02:25:38;7.60;99.90
21627;DHT22;10975;47.872;12.972;2023-11-22T02:28:05;7.70;99.90
21627;DHT22;10975;47.872;12.972;2023-11-22T02:30:35;7.60;99.90
21627;DHT22;10975;47.872;12.972;2023-11-22T02:33:03;7.60;99.90
21627;DHT22;10975;47.872;12.972;2023-11-22T02:35:31;7.60;99.90
21627;DHT22;10975;47.872;12.972;2023-11-22T02:37:59;7.60;99.90
21627;DHT22;10975;47.872;12.972;2023-11-22T02:40:26;7.60;99.90
21627;DHT22;10975;47.872;12.972;2023-11-22T02:42:53;7.60;99.90
21627;DHT22;10975;47.872;12.972;2023-11-22T02:45:21;7.50;99.90
21627;DHT22;10975;47.872;12.972;2023-11-22T02:47:50;7.40;99.90
21627;DHT22;10975;47.872;12.972;2023-11-22T02:50:19;7.40;99.90
21627;DHT22;10975;47.872;12.972;2023-11-22T02:52:46;7.50;99.90
21627;DHT22;10975;47.872;12.972;2023-11-22T02:55:13;7.50;99.90
21627;DHT22;10975;47.872;12.972;2023-11-22T02:57:41;7.60;99.90
21627;DHT22;10975;47.872;12.972;2023-11-22T03:00:08;7.50;99.90
21627;DHT22;10975;47.872;12.972;2023-11-22T03:02:35;7.40;99.90
21627;DHT22;10975;47.872;12.972;2023-11-22T03:05:04;7.40;99.90
21627;DHT22;10975;47.872;12.972;2023-11-22T03:07:31;7.30;99.90
21627;DHT22;10975;47.872;12.972;2023-11-22T03:09:57;7.30;99.90
21627;DHT22;10975;47.872;12.972;2023-11-22T03:12:36;7.40;99.90
21627;DHT22;10975;47.872;12.972;2023-11-22T03:15:04;7.50;99.90
21627;DHT22;10975;47.872;12.972;2023-11-22T03:17:31;7.50;99.90
21627;DHT22;10975;47.872;12.972;2023-11-22T03:19:59;7.40;99.90
21627;DHT22;10975;47.872;12.972;2023-11-22T03:22:27;7.40;99.90
21627;DHT22;10975;47.872;12.972;2023-11-22T03:24:56;7.40;99.90
21627;DHT22;10975;47.872;12.972;2023-11-22T03:27:25;7.20;99.90
21627;DHT22;10975;47.872;12.972;2023-11-22T03:29:52;7.20;99.90
21627;DHT22;10975;47.872;12.972;2023-11-22T03:32:19;7.20;99.90
21627;DHT22;10975;47.872;12.972;2023-11-22T03:34:46;7.30;99.90
21627;DHT22;10975;47.872;12.972;2023-11-22T03:37:13;7.30;99.90
21627;DHT22;10975;47.872;12.972;2023-11-22T03:39:39;7.30;99.90
21627;DHT22;10975;47.872;12.972;2023-11-22T03:42:06;7.30;99.90
21627;DHT22;10975;47.872;12.972;2023-11-22T03:44:33;7.30;99.90
21627;DHT22;10975;47.872;12.972;2023-11-22T03:47:00;7.20;99.90
21627;DHT22;10975;47.872;12.972;2023-11-22T03:49:27;7.20;99.90
21627;DHT22;10975;47.872;12.972;2023-11-22T03:51:53;7.20;99.90
21627;DHT22;10975;47.872;12.972;2023-11-22T03:54:20;7.10;99.90
21627;DHT22;10975;47.872;12.972;2023-11-22T03:56:47;7.20;99.90
21627;DHT22;10975;47.872;12.972;2023-11-22T03:59:13;7.10;99.90
21627;DHT22;10975;47.872;12.972;2023-11-22T04:01:40;7.10;99.90
21627;DHT22;10975;47.872;12.972;2023-11-22T04:04:07;6.90;99.90
21627;DHT22;10975;47.872;12.972;2023-11-22T04:06:36;6.90;99.90
21627;DHT22;10975;47.872;12.972;2023-11-22T04:09:03;6.80;99.90
21627;DHT22;10975;47.872;12.972;2023-11-22T04:11:30;6.80;99.90
21627;DHT22;10975;47.872;12.972;2023-11-22T04:13:57;6.80;99.90
21627;DHT22;10975;47.872;12.972;2023-11-22T04:16:24;6.80;99.90
21627;DHT22;10975;47.872;12.972;2023-11-22T04:18:52;6.80;99.90
21627;DHT22;10975;47.872;12.972;2023-11-22T04:21:19;6.80;99.90
21627;DHT22;10975;47.872;12.972;2023-11-22T04:23:46;6.80;99.90
21627;DHT22;10975;47.872;12.972;2023-11-22T04:26:12;6.80;99.90
21627;DHT22;10975;47.872;12.972;2023-11-22T04:28:39;6.70;99.90
21627;DHT22;10975;47.872;12.972;2023-11-22T04:31:06;6.70;99.90
21627;DHT22;10975;47.872;12.972;2023-11-22T04:33:35;6.60;99.90
21627;DHT22;10975;47.872;12.972;2023-11-22T04:36:03;6.60;99.90
21627;DHT22;10975;47.872;12.972;2023-11-22T04:38:29;6.50;99.90
21627;DHT22;10975;47.872;12.972;2023-11-22T04:40:56;6.50;99.90
21627;DHT22;10975;47.872;12.972;2023-11-22T04:43:23;6.40;99.90
21627;DHT22;10975;47.872;12.972;2023-11-22T04:45:50;6.40;99.90
21627;DHT22;10975;47.872;12.972;2023-11-22T04:48:16;6.40;99.90
21627;DHT22;10975;47.872;12.972;2023-11-22T04:50:43;6.40;99.90
21627;DHT22;10975;47.872;12.972;2023-11-22T04:53:10;6.40;99.90
21627;DHT22;10975;47.872;12.972;2023-11-22T04:55:37;6.40;99.90
21627;DHT22;10975;47.872;12.972;2023-11-22T04:58:04;6.40;99.90
21627;DHT22;10975;47.872;12.972;2023-11-22T05:00:30;6.40;99.90
21627;DHT22;10975;47.872;12.972;2023-11-22T05:02:57;6.40;99.90
21627;DHT22;10975;47.872;12.972;2023-11-22T05:05:24;6.30;99.90
21627;DHT22;10975;47.872;12.972;2023-11-22T05:07:51;6.30;99.90
21627;DHT22;10975;47.872;12.972;2023-11-22T05:10:19;6.40;99.90
21627;DHT22;10975;47.872;12.972;2023-11-22T05:12:45;6.20;99.90
21627;DHT22;10975;47.872;12.972;2023-11-22T05:15:12;6.20;99.90
21627;DHT22;10975;47.872;12.972;2023-11-22T05:17:40;6.20;99.90
21627;DHT22;10975;47.872;12.972;2023-11-22T05:20:07;6.20;99.90
21627;DHT22;10975;47.872;12.972;2023-11-22T05:22:36;6.20;99.90
21627;DHT22;10975;47.872;12.972;2023-11-22T05:25:04;6.20;99.90
21627;DHT22;10975;47.872;12.972;2023-11-22T05:27:30;6.20;99.90
21627;DHT22;10975;47.872;12.972;2023-11-22T05:29:59;6.10;99.90
21627;DHT22;10975;47.872;12.972;2023-11-22T05:32:28;6.10;99.90
21627;DHT22;10975;47.872;12.972;2023-11-22T05:34:55;6.10;99.90
21627;DHT22;10975;47.872;12.972;2023-11-22T05:37:22;6.10;99.90
21627;DHT22;10975;47.872;12.972;2023-11-22T05:39:51;6.10;99.90
21627;DHT22;10975;47.872;12.972;2023-11-22T05:42:18;6.00;99.90
21627;DHT22;10975;47.872;12.972;2023-11-22T05:44:45;5.90;99.90
21627;DHT22;10975;47.872;12.972;2023-11-22T05:47:11;5.80;99.90
21627;DHT22;10975;47.872;12.972;2023-11-22T05:49:39;5.80;99.90
21627;DHT22;10975;47.872;12.972;2023-11-22T05:52:06;5.80;99.90
21627;DHT22;10975;47.872;12.972;2023-11-22T05:54:33;5.80;99.90
21627;DHT22;10975;47.872;12.972;2023-11-22T05:57:00;5.80;99.90
21627;DHT22;10975;47.872;12.972;2023-11-22T05:59:26;5.70;99.90
21627;DHT22;10975;47.872;12.972;2023-11-22T06:01:53;5.70;99.90
21627;DHT22;10975;47.872;12.972;2023-11-22T06:04:20;5.60;99.90
21627;DHT22;10975;47.872;12.972;2023-11-22T06:06:47;5.60;99.90
21627;DHT22;10975;47.872;12.972;2023-11-22T06:09:14;5.60;99.90
21627;DHT22;10975;47.872;12.972;2023-11-22T06:11:41;5.60;99.90
21627;DHT22;10975;47.872;12.972;2023-11-22T06:14:08;5.70;99.90
21627;DHT22;10975;47.872;12.972;2023-11-22T06:16:35;5.70;99.90
21627;DHT22;10975;47.872;12.972;2023-11-22T06:19:02;5.60;99.90
21627;DHT22;10975;47.872;12.972;2023-11-22T06:21:28;5.50;99.90
21627;DHT22;10975;47.872;12.972;2023-11-22T06:23:55;5.50;99.90
21627;DHT22;10975;47.872;12.972;2023-11-22T06:26:25;5.50;99.90
21627;DHT22;10975;47.872;12.972;2023-11-22T06:28:52;5.30;99.90
21627;DHT22;10975;47.872;12.972;2023-11-22T06:31:19;5.30;99.90
21627;DHT22;10975;47.872;12.972;2023-11-22T06:33:45;5.30;99.90
21627;DHT22;10975;47.872;12.972;2023-11-22T06:36:12;5.20;99.90
21627;DHT22;10975;47.872;12.972;2023-11-22T06:38:41;5.10;99.90
21627;DHT22;10975;47.872;12.972;2023-11-22T06:41:08;5.10;99.90
21627;DHT22;10975;47.872;12.972;2023-11-22T06:43:35;5.10;99.90
21627;DHT22;10975;47.872;12.972;2023-11-22T06:46:02;5.20;99.90
21627;DHT22;10975;47.872;12.972;2023-11-22T06:48:32;5.20;99.90
21627;DHT22;10975;47.872;12.972;2023-11-22T06:51:00;5.10;99.90
21627;DHT22;10975;47.872;12.972;2023-11-22T06:53:27;5.00;99.90
21627;DHT22;10975;47.872;12.972;2023-11-22T06:55:54;5.00;99.90
21627;DHT22;10975;47.872;12.972;2023-11-22T06:58:21;5.00;99.90
21627;DHT22;10975;47.872;12.972;2023-11-22T07:00:48;4.90;99.90
21627;DHT22;10975;47.872;12.972;2023-11-22T07:03:15;4.80;99.90
21627;DHT22;10975;47.872;12.972;2023-11-22T07:05:43;4.90;99.90
21627;DHT22;10975;47.872;12.972;2023-11-22T07:08:10;4.90;99.90
21627;DHT22;10975;47.872;12.972;2023-11-22T07:10:43;4.80;99.90
21627;DHT22;10975;47.872;12.972;2023-11-22T07:13:11;4.70;99.90
21627;DHT22;10975;47.872;12.972;2023-11-22T07:15:39;4.80;99.90
21627;DHT22;10975;47.872;12.972;2023-11-22T07:18:07;4.80;99.90
21627;DHT22;10975;47.872;12.972;2023-11-22T07:20:36;4.80;99.90
21627;DHT22;10975;47.872;12.972;2023-11-22T07:23:05;4.70;99.90
21627;DHT22;10975;47.872;12.972;2023-11-22T07:25:32;4.70;99.90
21627;DHT22;10975;47.872;12.972;2023-11-22T07:28:00;4.70;99.90
21627;DHT22;10975;47.872;12.972;2023-11-22T07:30:27;4.70;99.90
21627;DHT22;10975;47.872;12.972;2023-11-22T07:32:57;4.70;99.90
21627;DHT22;10975;47.872;12.972;2023-11-22T07:35:26;4.80;99.90
21627;DHT22;10975;47.872;12.972;2023-11-22T07:37:55;4.70;99.90
21627;DHT22;10975;47.872;12.972;2023-11-22T07:40:21;4.70;99.90
21627;DHT22;10975;47.872;12.972;2023-11-22T07:42:49;4.70;99.90
21627;DHT22;10975;47.872;12.972;2023-11-22T07:45:16;4.80;99.90
21627;DHT22;10975;47.872;12.972;2023-11-22T07:47:43;4.80;99.90
21627;DHT22;10975;47.872;12.972;2023-11-22T07:50:11;4.80;99.90
21627;DHT22;10975;47.872;12.972;2023-11-22T07:52:38;4.80;99.90
21627;DHT22;10975;47.872;12.972;2023-11-22T07:55:07;4.80;99.90
21627;DHT22;10975;47.872;12.972;2023-11-22T07:57:37;4.90;99.90
21627;DHT22;10975;47.872;12.972;2023-11-22T08:00:06;4.90;99.90
21627;DHT22;10975;47.872;12.972;2023-11-22T08:02:34;4.90;99.90
21627;DHT22;10975;47.872;12.972;2023-11-22T08:05:03;4.90;99.90
21627;DHT22;10975;47.872;12.972;2023-11-22T08:07:38;4.90;99.90
21627;DHT22;10975;47.872;12.972;2023-11-22T08:10:08;4.90;99.90
21627;DHT22;10975;47.872;12.972;2023-11-22T08:12:46;5.00;99.90
21627;DHT22;10975;47.872;12.972;2023-11-22T08:15:13;4.90;99.90
21627;DHT22;10975;47.872;12.972;2023-11-22T08:17:40;4.80;99.90
21627;DHT22;10975;47.872;12.972;2023-11-22T08:20:07;4.80;99.90
21627;DHT22;10975;47.872;12.972;2023-11-22T08:22:41;4.80;99.90
21627;DHT22;10975;47.872;12.972;2023-11-22T08:25:08;4.90;99.90
21627;DHT22;10975;47.872;12.972;2023-11-22T08:27:35;4.90;99.90
21627;DHT22;10975;47.872;12.972;2023-11-22T08:30:01;4.90;99.90
21627;DHT22;10975;47.872;12.972;2023-11-22T08:32:31;4.90;99.90
21627;DHT22;10975;47.872;12.972;2023-11-22T08:34:58;4.90;99.90
21627;DHT22;10975;47.872;12.972;2023-11-22T08:37:25;4.90;99.90
21627;DHT22;10975;47.872;12.972;2023-11-22T08:39:52;5.00;99.90
21627;DHT22;10975;47.872;12.972;2023-11-22T08:42:18;5.00;99.90
21627;DHT22;10975;47.872;12.972;2023-11-22T08:44:45;5.10;99.90
21627;DHT22;10975;47.872;12.972;2023-11-22T08:47:12;4.90;99.90
21627;DHT22;10975;47.872;12.972;2023-11-22T08:49:39;4.90;99.90
21627;DHT22;10975;47.872;12.972;2023-11-22T08:52:08;4.90;99.90
21627;DHT22;10975;47.872;12.972;2023-11-22T08:54:35;4.90;99.90
21627;DHT22;10975;47.872;12.972;2023-11-22T08:57:02;4.90;99.90
21627;DHT22;10975;47.872;12.972;2023-11-22T08:59:28;4.90;99.90
21627;DHT22;10975;47.872;12.972;2023-11-22T09:01:55;4.90;99.90
21627;DHT22;10975;47.872;12.972;2023-11-22T09:04:22;4.90;99.90
21627;DHT22;10975;47.872;12.972;2023-11-22T09:06:51;4.80;99.90
21627;DHT22;10975;47.872;12.972;2023-11-22T09:09:17;4.80;99.90
21627;DHT22;10975;47.872;12.972;2023-11-22T09:11:46;4.80;99.90
21627;DHT22;10975;47.872;12.972;2023-11-22T09:14:12;4.70;99.90
21627;DHT22;10975;47.872;12.972;2023-11-22T09:16:39;4.80;99.90
21627;DHT22;10975;47.872;12.972;2023-11-22T09:19:06;4.70;99.90
21627;DHT22;10975;47.872;12.972;2023-11-22T09:21:33;4.90;99.90
21627;DHT22;10975;47.872;12.972;2023-11-22T09:24:00;4.90;99.90
21627;DHT22;10975;47.872;12.972;2023-11-22T09:26:26;4.90;99.90
21627;DHT22;10975;47.872;12.972;2023-11-22T09:28:53;4.90;99.90
21627;DHT22;10975;47.872;12.972;2023-11-22T09:31:20;5.10;99.90
21627;DHT22;10975;47.872;12.972;2023-11-22T09:33:47;5.00;99.90
21627;DHT22;10975;47.872;12.972;2023-11-22T09:36:14;5.10;99.90
21627;DHT22;10975;47.872;12.972;2023-11-22T09:38:41;5.00;99.90
21627;DHT22;10975;47.872;12.972;2023-11-22T09:41:08;5.00;99.90
21627;DHT22;10975;47.872;12.972;2023-11-22T09:43:36;4.90;99.90
21627;DHT22;10975;47.872;12.972;2023-11-22T09:46:03;4.90;99.90
21627;DHT22;10975;47.872;12.972;2023-11-22T09:48:30;5.00;99.90
21627;DHT22;10975;47.872;12.972;2023-11-22T09:55:58;5.00;99.90
21627;DHT22;10975;47.872;12.972;2023-11-22T09:58:25;4.90;99.90
21627;DHT22;10975;47.872;12.972;2023-11-22T10:00:52;4.90;99.90
21627;DHT22;10975;47.872;12.972;2023-11-22T10:03:19;5.00;99.90
21627;DHT22;10975;47.872;12.972;2023-11-22T10:05:47;5.10;99.90
21627;DHT22;10975;47.872;12.972;2023-11-22T10:08:14;5.10;99.90
21627;DHT22;10975;47.872;12.972;2023-11-22T10:10:41;5.00;99.90
21627;DHT22;10975;47.872;12.972;2023-11-22T10:13:10;4.90;99.90
21627;DHT22;10975;47.872;12.972;2023-11-22T10:15:39;4.90;99.90
21627;DHT22;10975;47.872;12.972;2023-11-22T10:18:06;5.00;99.90
21627;DHT22;10975;47.872;12.972;2023-11-22T10:20:38;4.90;99.90
21627;DHT22;10975;47.872;12.972;2023-11-22T10:23:09;4.90;99.90
21627;DHT22;10975;47.872;12.972;2023-11-22T10:25:37;4.90;99.90
21627;DHT22;10975;47.872;12.972;2023-11-22T10:28:11;4.90;99.90
21627;DHT22;10975;47.872;12.972;2023-11-22T10:30:40;5.10;99.90
21627;DHT22;10975;47.872;12.972;2023-11-22T10:33:09;5.10;99.90
21627;DHT22;10975;47.872;12.972;2023-11-22T10:35:36;5.20;99.90
21627;DHT22;10975;47.872;12.972;2023-11-22T10:38:03;5.20;99.90
21627;DHT22;10975;47.872;12.972;2023-11-22T10:40:33;5.30;99.90
21627;DHT22;10975;47.872;12.972;2023-11-22T10:42:59;5.30;99.90
21627;DHT22;10975;47.872;12.972;2023-11-22T10:45:27;5.30;99.90
21627;DHT22;10975;47.872;12.972;2023-11-22T10:47:55;5.20;99.90
21627;DHT22;10975;47.872;12.972;2023-11-22T10:50:22;5.20;99.90
21627;DHT22;10975;47.872;12.972;2023-11-22T10:52:50;5.20;99.90
21627;DHT22;10975;47.872;12.972;2023-11-22T10:55:21;5.10;99.90
21627;DHT22;10975;47.872;12.972;2023-11-22T10:57:54;5.20;99.90
21627;DHT22;10975;47.872;12.972;2023-11-22T11:00:23;5.20;99.90
21627;DHT22;10975;47.872;12.972;2023-11-22T11:02:58;5.10;99.90
21627;DHT22;10975;47.872;12.972;2023-11-22T11:05:27;5.00;99.90
21627;DHT22;10975;47.872;12.972;2023-11-22T11:08:08;5.00;99.90
21627;DHT22;10975;47.872;12.972;2023-11-22T11:10:39;5.10;99.90
21627;DHT22;10975;47.872;12.972;2023-11-22T11:13:08;5.00;99.90
21627;DHT22;10975;47.872;12.972;2023-11-22T11:15:38;5.10;99.90
21627;DHT22;10975;47.872;12.972;2023-11-22T11:18:13;5.00;99.90
21627;DHT22;10975;47.872;12.972;2023-11-22T11:20:51;5.00;99.90
21627;DHT22;10975;47.872;12.972;2023-11-22T11:23:25;5.10;99.90
21627;DHT22;10975;47.872;12.972;2023-11-22T11:25:53;5.00;99.90
21627;DHT22;10975;47.872;12.972;2023-11-22T11:28:20;4.90;99.90
21627;DHT22;10975;47.872;12.972;2023-11-22T11:30:48;5.00;99.90
21627;DHT22;10975;47.872;12.972;2023-11-22T11:33:17;5.00;99.90
21627;DHT22;10975;47.872;12.972;2023-11-22T11:35:46;5.00;99.90
21627;DHT22;10975;47.872;12.972;2023-11-22T11:38:14;5.10;99.90
21627;DHT22;10975;47.872;12.972;2023-11-22T11:40:41;5.10;99.90
21627;DHT22;10975;47.872;12.972;2023-11-22T11:43:12;5.20;99.90
21627;DHT22;10975;47.872;12.972;2023-11-22T11:45:40;5.10;99.90
21627;DHT22;10975;47.872;12.972;2023-11-22T11:48:12;5.10;99.90
21627;DHT22;10975;47.872;12.972;2023-11-22T11:50:43;5.10;99.90
21627;DHT22;10975;47.872;12.972;2023-11-22T11:53:10;5.10;99.90
21627;DHT22;10975;47.872;12.972;2023-11-22T11:55:37;5.00;99.90
21627;DHT22;10975;47.872;12.972;2023-11-22T11:58:04;5.10;99.90
21627;DHT22;10975;47.872;12.972;2023-11-22T12:00:31;5.10;99.90
21627;DHT22;10975;47.872;12.972;2023-11-22T12:02:58;5.10;99.90
21627;DHT22;10975;47.872;12.972;2023-11-22T12:05:25;5.10;99.90
21627;DHT22;10975;47.872;12.972;2023-11-22T12:07:52;5.00;99.90
21627;DHT22;10975;47.872;12.972;2023-11-22T12:10:19;5.10;99.90
21627;DHT22;10975;47.872;12.972;2023-11-22T12:12:45;5.10;99.90
21627;DHT22;10975;47.872;12.972;2023-11-22T12:15:12;5.10;99.90
21627;DHT22;10975;47.872;12.972;2023-11-22T12:17:41;5.10;99.90
21627;DHT22;10975;47.872;12.972;2023-11-22T12:20:09;5.00;99.90
21627;DHT22;10975;47.872;12.972;2023-11-22T12:22:38;5.00;99.90
21627;DHT22;10975;47.872;12.972;2023-11-22T12:25:05;4.90;99.90
21627;DHT22;10975;47.872;12.972;2023-11-22T12:27:31;4.90;99.90
21627;DHT22;10975;47.872;12.972;2023-11-22T12:29:58;5.00;99.90
21627;DHT22;10975;47.872;12.972;2023-11-22T12:32:26;5.10;99.90
21627;DHT22;10975;47.872;12.972;2023-11-22T12:34:53;5.00;99.90
21627;DHT22;10975;47.872;12.972;2023-11-22T12:37:20;5.00;99.90
21627;DHT22;10975;47.872;12.972;2023-11-22T12:39:48;5.00;99.90
21627;DHT22;10975;47.872;12.972;2023-11-22T12:42:15;5.00;99.90
21627;DHT22;10975;47.872;12.972;2023-11-22T12:44:48;5.00;99.90
21627;DHT22;10975;47.872;12.972;2023-11-22T12:47:30;5.00;99.90
21627;DHT22;10975;47.872;12.972;2023-11-22T12:49:56;5.10;99.90
21627;DHT22;10975;47.872;12.972;2023-11-22T12:52:26;5.10;99.90
21627;DHT22;10975;47.872;12.972;2023-11-22T12:54:52;5.10;99.90
21627;DHT22;10975;47.872;12.972;2023-11-22T12:57:20;5.20;99.90
21627;DHT22;10975;47.872;12.972;2023-11-22T12:59:49;5.20;99.90
21627;DHT22;10975;47.872;12.972;2023-11-22T13:02:16;5.20;99.90
21627;DHT22;10975;47.872;12.972;2023-11-22T13:04:43;5.30;99.90
21627;DHT22;10975;47.872;12.972;2023-11-22T13:07:12;5.30;99.90
21627;DHT22;10975;47.872;12.972;2023-11-22T13:09:39;5.30;99.90
21627;DHT22;10975;47.872;12.972;2023-11-22T13:12:06;5.30;99.90
21627;DHT22;10975;47.872;12.972;2023-11-22T13:14:33;5.30;99.90
21627;DHT22;10975;47.872;12.972;2023-11-22T13:17:04;5.20;99.90
21627;DHT22;10975;47.872;12.972;2023-11-22T13:19:35;5.20;99.90
21627;DHT22;10975;47.872;12.972;2023-11-22T13:22:02;5.20;99.90
21627;DHT22;10975;47.872;12.972;2023-11-22T13:24:28;5.20;99.90
21627;DHT22;10975;47.872;12.972;2023-11-22T13:26:55;5.20;99.90
21627;DHT22;10975;47.872;12.972;2023-11-22T13:29:22;5.30;99.90
21627;DHT22;10975;47.872;12.972;2023-11-22T13:31:50;5.20;99.90
21627;DHT22;10975;47.872;12.972;2023-11-22T13:34:18;5.20;99.90
21627;DHT22;10975;47.872;12.972;2023-11-22T13:36:44;5.10;99.90
21627;DHT22;10975;47.872;12.972;2023-11-22T13:39:11;5.10;99.90
21627;DHT22;10975;47.872;12.972;2023-11-22T13:41:41;5.10;99.90
21627;DHT22;10975;47.872;12.972;2023-11-22T13:44:08;5.10;99.90
21627;DHT22;10975;47.872;12.972;2023-11-22T13:46:35;5.10;99.90
21627;DHT22;10975;47.872;12.972;2023-11-22T13:49:01;5.10;99.90
21627;DHT22;10975;47.872;12.972;2023-11-22T13:51:28;5.10;99.90
21627;DHT22;10975;47.872;12.972;2023-11-22T13:53:55;5.10;99.90
21627;DHT22;10975;47.872;12.972;2023-11-22T13:56:22;5.10;99.90
21627;DHT22;10975;47.872;12.972;2023-11-22T13:58:49;5.10;99.90
21627;DHT22;10975;47.872;12.972;2023-11-22T14:01:20;5.00;99.90
21627;DHT22;10975;47.872;12.972;2023-11-22T14:03:48;5.00;99.90
21627;DHT22;10975;47.872;12.972;2023-11-22T14:06:16;5.10;99.90
21627;DHT22;10975;47.872;12.972;2023-11-22T14:08:43;5.10;99.90
21627;DHT22;10975;47.872;12.972;2023-11-22T14:11:11;5.00;99.90
21627;DHT22;10975;47.872;12.972;2023-11-22T14:13:39;4.80;99.90
21627;DHT22;10975;47.872;12.972;2023-11-22T14:16:06;4.80;99.90
21627;DHT22;10975;47.872;12.972;2023-11-22T14:18:33;4.80;99.90
21627;DHT22;10975;47.872;12.972;2023-11-22T14:21:00;4.70;99.90
21627;DHT22;10975;47.872;12.972;2023-11-22T14:23:30;4.80;99.90
21627;DHT22;10975;47.872;12.972;2023-11-22T14:25:57;4.80;99.90
21627;DHT22;10975;47.872;12.972;2023-11-22T14:28:23;4.80;99.90
21627;DHT22;10975;47.872;12.972;2023-11-22T14:30:50;4.80;99.90
21627;DHT22;10975;47.872;12.972;2023-11-22T14:33:21;4.80;99.90
21627;DHT22;10975;47.872;12.972;2023-11-22T14:35:48;4.80;99.90
21627;DHT22;10975;47.872;12.972;2023-11-22T14:38:15;4.70;99.90
21627;DHT22;10975;47.872;12.972;2023-11-22T14:40:44;4.60;99.90
21627;DHT22;10975;47.872;12.972;2023-11-22T14:43:11;4.70;99.90
21627;DHT22;10975;47.872;12.972;2023-11-22T14:45:38;4.70;99.90
21627;DHT22;10975;47.872;12.972;2023-11-22T14:48:05;4.60;99.90
21627;DHT22;10975;47.872;12.972;2023-11-22T14:50:31;4.60;99.90
21627;DHT22;10975;47.872;12.972;2023-11-22T14:52:58;4.50;99.90
21627;DHT22;10975;47.872;12.972;2023-11-22T14:55:25;4.60;99.90
21627;DHT22;10975;47.872;12.972;2023-11-22T14:57:52;4.60;99.90
21627;DHT22;10975;47.872;12.972;2023-11-22T15:00:24;4.50;99.90
21627;DHT22;10975;47.872;12.972;2023-11-22T15:02:51;4.50;99.90
21627;DHT22;10975;47.872;12.972;2023-11-22T15:05:21;4.50;99.90
21627;DHT22;10975;47.872;12.972;2023-11-22T15:07:49;4.50;99.90
21627;DHT22;10975;47.872;12.972;2023-11-22T15:10:21;4.50;99.90
21627;DHT22;10975;47.872;12.972;2023-11-22T15:12:48;4.50;99.90
21627;DHT22;10975;47.872;12.972;2023-11-22T15:15:15;4.40;99.90
21627;DHT22;10975;47.872;12.972;2023-11-22T15:17:42;4.40;99.90
21627;DHT22;10975;47.872;12.972;2023-11-22T15:20:09;4.40;99.90
21627;DHT22;10975;47.872;12.972;2023-11-22T15:22:38;4.50;99.90
21627;DHT22;10975;47.872;12.972;2023-11-22T15:25:05;4.50;99.90
21627;DHT22;10975;47.872;12.972;2023-11-22T15:27:32;4.50;99.90
21627;DHT22;10975;47.872;12.972;2023-11-22T15:29:59;4.50;99.90
21627;DHT22;10975;47.872;12.972;2023-11-22T15:32:26;4.50;99.90
21627;DHT22;10975;47.872;12.972;2023-11-22T15:34:53;4.50;99.90
21627;DHT22;10975;47.872;12.972;2023-11-22T15:37:20;4.50;99.90